Time;durP1;ratioP1;P1;durP2;ratioP2;P2;SDS_P1;SDS_P2;PMS_P1;PMS_P2;Temp;Humidity;BMP_temperature;BMP_pressure;BME280_temperature;BME280_humidity;BME280_pressure;Samples;Min_cycle;Max_cycle;Signal;HPM_P1;HPM_P2
2022/07/21 00:01:37;;;;;;;16.35;10.30;;;;;;;;;;5039964;28;20064;-76
2022/07/21 00:04:23;;;;;;;12.82;10.40;;;;;;;;;;5053682;28;20108;-75
2022/07/21 00:07:08;;;;;;;12.82;10.13;;;;;;;;;;5042795;28;20080;-76
2022/07/21 00:09:55;;;;;;;12.60;11.27;;;;;;;;;;5046263;28;20067;-71
2022/07/21 00:12:41;;;;;;;17.83;10.98;;;;;;;;;;5053722;28;20083;-74
2022/07/21 00:15:27;;;;;;;13.13;10.25;;;;;;;;;;5045122;28;20447;-75
2022/07/21 00:18:13;;;;;;;14.50;11.48;;;;;;;;;;5065711;28;20105;-74
2022/07/21 00:20:59;;;;;;;15.02;11.40;;;;;;;;;;5052071;28;20033;-74
2022/07/21 00:23:45;;;;;;;14.38;11.65;;;;;;;;;;5064743;28;20031;-73
2022/07/21 00:26:31;;;;;;;15.60;11.98;;;;;;;;;;5045199;28;20028;-74
2022/07/21 00:29:17;;;;;;;13.80;10.75;;;;;;;;;;5042657;28;20132;-70
2022/07/21 00:32:04;;;;;;;13.70;10.73;;;;;;;;;;5064713;28;20053;-70
2022/07/21 00:34:50;;;;;;;14.25;10.98;;;;;;;;;;5015777;28;20583;-68
2022/07/21 00:37:36;;;;;;;19.13;12.32;;;;;;;;;;5041898;28;20149;-69
2022/07/21 00:40:21;;;;;;;15.40;10.50;;;;;;;;;;5043577;28;27723;-69
2022/07/21 00:43:07;;;;;;;14.93;11.23;;;;;;;;;;5039600;28;20503;-68
2022/07/21 00:45:53;;;;;;;17.10;11.73;;;;;;;;;;5042603;28;20039;-73
2022/07/21 00:48:39;;;;;;;13.65;10.82;;;;;;;;;;5046655;28;20039;-70
2022/07/21 00:51:24;;;;;;;14.20;11.45;;;;;;;;;;5062032;28;20037;-69
2022/07/21 00:54:10;;;;;;;12.70;11.05;;;;;;;;;;5050994;28;20082;-71
2022/07/21 00:56:55;;;;;;;13.48;11.25;;;;;;;;;;5059490;28;20036;-70
2022/07/21 00:59:41;;;;;;;14.05;11.35;;;;;;;;;;5040717;28;20029;-70
2022/07/21 01:02:28;;;;;;;14.20;11.60;;;;;;;;;;5027497;28;20119;-69
2022/07/21 01:05:18;;;;;;;12.60;10.65;;;;;;;;;;5058968;28;20040;-70
2022/07/21 01:08:04;;;;;;;11.68;9.75;;;;;;;;;;5059775;28;20029;-71
2022/07/21 01:10:50;;;;;;;12.80;9.55;;;;;;;;;;5053103;28;20032;-72
2022/07/21 01:13:41;;;;;;;12.18;10.65;;;;;;;;;;5057174;28;20024;-73
2022/07/21 01:16:26;;;;;;;13.77;10.90;;;;;;;;;;5055505;28;20040;-71
2022/07/21 01:19:12;;;;;;;13.75;10.88;;;;;;;;;;5052703;28;20908;-71
2022/07/21 01:21:58;;;;;;;13.70;11.25;;;;;;;;;;5044947;28;20037;-71
2022/07/21 01:24:44;;;;;;;13.40;9.63;;;;;;;;;;5042506;28;20037;-72
2022/07/21 01:27:30;;;;;;;13.68;9.70;;;;;;;;;;5028639;28;20048;-70
2022/07/21 01:30:16;;;;;;;13.00;9.73;;;;;;;;;;5045969;28;20042;-69
2022/07/21 01:33:02;;;;;;;11.15;9.20;;;;;;;;;;5062401;28;20036;-70
2022/07/21 01:35:49;;;;;;;13.65;9.70;;;;;;;;;;5047221;28;20032;-71
2022/07/21 01:41:39;;;;;;;13.10;10.05;;;;;;;;;;5016228;28;20029;-74
2022/07/21 01:44:25;;;;;;;12.68;9.55;;;;;;;;;;5049105;28;20024;-71
2022/07/21 01:47:10;;;;;;;12.52;9.57;;;;;;;;;;5047690;28;20075;-70
2022/07/21 01:49:56;;;;;;;13.60;9.63;;;;;;;;;;5038299;28;20029;-70
2022/07/21 01:52:42;;;;;;;13.52;9.63;;;;;;;;;;5059476;28;20043;-70
2022/07/21 01:55:29;;;;;;;13.25;9.23;;;;;;;;;;5048623;28;20103;-72
2022/07/21 01:58:14;;;;;;;12.10;9.07;;;;;;;;;;5041451;28;20342;-71
2022/07/21 02:01:00;;;;;;;13.35;9.45;;;;;;;;;;5044955;28;20112;-71
2022/07/21 02:03:46;;;;;;;14.15;10.00;;;;;;;;;;5052525;28;20498;-77
2022/07/21 02:06:32;;;;;;;11.52;9.23;;;;;;;;;;5049930;28;20037;-78
2022/07/21 02:09:18;;;;;;;13.05;9.75;;;;;;;;;;5047667;28;20029;-76
2022/07/21 02:12:03;;;;;;;11.40;8.65;;;;;;;;;;5045593;28;20032;-75
2022/07/21 02:14:49;;;;;;;19.17;9.65;;;;;;;;;;5040928;28;20120;-76
2022/07/21 02:17:34;;;;;;;12.88;8.30;;;;;;;;;;5048948;28;20028;-74
2022/07/21 02:20:20;;;;;;;10.00;7.70;;;;;;;;;;5043492;28;20485;-73
2022/07/21 02:23:06;;;;;;;12.68;8.27;;;;;;;;;;5051520;28;20439;-73
2022/07/21 02:25:55;;;;;;;13.00;9.05;;;;;;;;;;5040099;28;20388;-72
2022/07/21 02:28:40;;;;;;;10.30;8.05;;;;;;;;;;5055486;28;20025;-75
2022/07/21 02:31:26;;;;;;;11.43;7.72;;;;;;;;;;5060973;28;20067;-72
2022/07/21 02:34:11;;;;;;;13.32;9.50;;;;;;;;;;5032108;28;20032;-72
2022/07/21 02:36:57;;;;;;;10.00;7.60;;;;;;;;;;5034095;28;20392;-73
2022/07/21 02:39:43;;;;;;;11.07;7.50;;;;;;;;;;5036225;28;20036;-73
2022/07/21 02:42:29;;;;;;;10.82;7.50;;;;;;;;;;5058813;28;20037;-73
2022/07/21 02:45:14;;;;;;;11.10;8.02;;;;;;;;;;5063447;28;20033;-73
2022/07/21 02:48:02;;;;;;;10.57;7.18;;;;;;;;;;5045919;28;20041;-73
2022/07/21 02:50:48;;;;;;;11.07;7.93;;;;;;;;;;5046568;28;20387;-74
2022/07/21 02:53:33;;;;;;;12.77;9.05;;;;;;;;;;5051765;28;20059;-74
2022/07/21 02:56:19;;;;;;;11.90;7.50;;;;;;;;;;5040043;28;20033;-75
2022/07/21 02:59:05;;;;;;;11.40;7.78;;;;;;;;;;5038873;28;20033;-70
2022/07/21 03:01:50;;;;;;;11.75;7.93;;;;;;;;;;5046892;28;20033;-70
2022/07/21 03:04:36;;;;;;;11.40;7.88;;;;;;;;;;5059723;28;20021;-70
2022/07/21 03:07:22;;;;;;;10.30;8.00;;;;;;;;;;5061609;28;20032;-70
2022/07/21 03:10:07;;;;;;;11.63;8.40;;;;;;;;;;5042034;28;20365;-70
2022/07/21 03:12:53;;;;;;;11.75;7.40;;;;;;;;;;5044163;28;20036;-76
2022/07/21 03:15:39;;;;;;;13.38;7.72;;;;;;;;;;5040841;28;20025;-77
2022/07/21 03:18:25;;;;;;;11.85;8.00;;;;;;;;;;5051797;28;20074;-70
2022/07/21 03:21:10;;;;;;;12.73;7.95;;;;;;;;;;5037694;28;20037;-70
2022/07/21 03:23:56;;;;;;;11.07;7.68;;;;;;;;;;5058091;28;20040;-70
2022/07/21 03:26:41;;;;;;;8.52;7.47;;;;;;;;;;5059659;28;20029;-71
2022/07/21 03:29:27;;;;;;;12.75;8.70;;;;;;;;;;5025146;28;20056;-71
2022/07/21 03:32:13;;;;;;;11.73;7.93;;;;;;;;;;5019136;28;20037;-72
2022/07/21 03:34:58;;;;;;;13.73;8.00;;;;;;;;;;5051794;28;20444;-73
2022/07/21 03:37:49;;;;;;;11.65;7.20;;;;;;;;;;5027394;28;20032;-73
2022/07/21 03:40:36;;;;;;;10.63;6.93;;;;;;;;;;5044920;28;20032;-74
2022/07/21 03:43:22;;;;;;;9.38;6.95;;;;;;;;;;5048704;28;20403;-72
2022/07/21 03:46:07;;;;;;;12.77;7.70;;;;;;;;;;5047640;28;20052;-73
2022/07/21 03:48:53;;;;;;;11.25;6.38;;;;;;;;;;5048181;28;20484;-72
2022/07/21 03:51:38;;;;;;;8.85;6.80;;;;;;;;;;5032364;28;20040;-70
2022/07/21 03:54:24;;;;;;;9.05;6.93;;;;;;;;;;5044103;28;20463;-69
2022/07/21 03:57:10;;;;;;;13.20;8.48;;;;;;;;;;5059802;28;20052;-69
2022/07/21 03:59:55;;;;;;;11.23;7.43;;;;;;;;;;5026067;28;20401;-69
2022/07/21 04:02:44;;;;;;;10.55;7.10;;;;;;;;;;5032111;28;20021;-69
2022/07/21 04:05:29;;;;;;;9.70;7.03;;;;;;;;;;5048562;28;20040;-69
2022/07/21 04:08:15;;;;;;;12.60;7.50;;;;;;;;;;5038347;28;20916;-73
2022/07/21 04:11:00;;;;;;;12.00;8.40;;;;;;;;;;5053601;28;20093;-75
2022/07/21 04:13:46;;;;;;;10.73;7.43;;;;;;;;;;5030047;28;20029;-71
2022/07/21 04:16:32;;;;;;;12.05;7.20;;;;;;;;;;5061289;28;20041;-71
2022/07/21 04:19:18;;;;;;;8.02;6.45;;;;;;;;;;5054169;28;20076;-71
2022/07/21 04:22:04;;;;;;;11.65;7.45;;;;;;;;;;5039568;28;20033;-72
2022/07/21 04:24:49;;;;;;;12.98;7.88;;;;;;;;;;5051752;28;20034;-71
2022/07/21 04:27:35;;;;;;;13.07;6.85;;;;;;;;;;5061013;28;20025;-69
2022/07/21 04:30:22;;;;;;;8.85;6.28;;;;;;;;;;5060240;28;20029;-69
2022/07/21 04:33:08;;;;;;;10.00;7.30;;;;;;;;;;5051068;28;20415;-70
2022/07/21 04:35:53;;;;;;;9.27;7.22;;;;;;;;;;5053974;28;20533;-69
2022/07/21 04:38:39;;;;;;;11.10;7.57;;;;;;;;;;5038988;28;20384;-69
2022/07/21 04:41:24;;;;;;;8.82;6.78;;;;;;;;;;5031578;28;20506;-68
2022/07/21 04:44:10;;;;;;;10.32;7.50;;;;;;;;;;5042076;28;20025;-70
2022/07/21 04:46:55;;;;;;;9.18;7.20;;;;;;;;;;5048783;28;21460;-69
2022/07/21 04:49:41;;;;;;;12.50;7.22;;;;;;;;;;5046204;28;20021;-71
2022/07/21 04:52:27;;;;;;;8.98;6.97;;;;;;;;;;5061230;28;20127;-70
2022/07/21 04:55:13;;;;;;;10.93;7.60;;;;;;;;;;5053660;28;20105;-72
2022/07/21 04:57:59;;;;;;;10.05;7.50;;;;;;;;;;5044009;28;20045;-73
2022/07/21 05:00:44;;;;;;;14.95;8.80;;;;;;;;;;5046616;28;20068;-71
2022/07/21 05:03:30;;;;;;;10.02;7.95;;;;;;;;;;5043213;28;20036;-76
2022/07/21 05:06:15;;;;;;;12.20;7.35;;;;;;;;;;5043028;28;20505;-74
2022/07/21 05:08:57;;;;;;;9.93;7.60;;;;;;;;;;5012043;28;20050;-75
2022/07/21 05:11:43;;;;;;;15.98;7.85;;;;;;;;;;4967093;28;20088;-75
2022/07/21 05:14:28;;;;;;;12.55;7.20;;;;;;;;;;4971855;28;20113;-76
2022/07/21 05:17:14;;;;;;;10.45;6.78;;;;;;;;;;4985505;28;20475;-76
2022/07/21 05:19:59;;;;;;;10.23;7.88;;;;;;;;;;5010655;28;20072;-76
2022/07/21 05:22:45;;;;;;;9.13;7.45;;;;;;;;;;4982523;28;20026;-73
2022/07/21 05:25:32;;;;;;;9.10;6.53;;;;;;;;;;4981951;28;20045;-72
2022/07/21 05:28:17;;;;;;;10.52;7.45;;;;;;;;;;5003239;28;20392;-74
2022/07/21 05:31:03;;;;;;;13.02;8.90;;;;;;;;;;4980727;28;20049;-73
2022/07/21 05:33:49;;;;;;;9.68;7.07;;;;;;;;;;4975380;28;20409;-73
2022/07/21 05:36:34;;;;;;;10.82;7.35;;;;;;;;;;4997744;28;20034;-72
2022/07/21 05:39:20;;;;;;;10.00;7.38;;;;;;;;;;4997055;28;20044;-73
2022/07/21 05:42:05;;;;;;;12.38;7.22;;;;;;;;;;5003238;28;20095;-71
2022/07/21 05:44:51;;;;;;;11.02;7.28;;;;;;;;;;4974760;28;20038;-72
2022/07/21 05:47:37;;;;;;;9.50;7.63;;;;;;;;;;5014671;28;20042;-71
2022/07/21 05:50:22;;;;;;;12.63;8.90;;;;;;;;;;4986396;28;20249;-72
2022/07/21 05:53:08;;;;;;;12.40;8.35;;;;;;;;;;4978520;28;20050;-72
2022/07/21 05:55:54;;;;;;;12.88;8.35;;;;;;;;;;4980809;28;20030;-72
2022/07/21 05:58:39;;;;;;;9.63;7.38;;;;;;;;;;5003172;28;20026;-72
2022/07/21 06:01:25;;;;;;;11.13;7.80;;;;;;;;;;5038399;28;20035;-70
2022/07/21 06:04:10;;;;;;;10.95;8.85;;;;;;;;;;5038044;28;20163;-74
2022/07/21 06:06:56;;;;;;;13.90;8.55;;;;;;;;;;5039916;28;20194;-73
2022/07/21 06:09:42;;;;;;;13.13;8.80;;;;;;;;;;5037479;28;20105;-71
2022/07/21 06:12:27;;;;;;;11.13;7.03;;;;;;;;;;5031306;28;20140;-73
2022/07/21 06:15:13;;;;;;;10.52;7.55;;;;;;;;;;5040065;28;20115;-72
2022/07/21 06:17:58;;;;;;;11.15;8.52;;;;;;;;;;5039808;28;20036;-73
2022/07/21 06:20:44;;;;;;;10.35;7.05;;;;;;;;;;5037431;28;20032;-75
2022/07/21 06:23:30;;;;;;;12.38;6.93;;;;;;;;;;5039981;28;20056;-76
2022/07/21 06:26:15;;;;;;;9.77;6.82;;;;;;;;;;5027645;28;20032;-76
2022/07/21 06:29:01;;;;;;;9.65;7.47;;;;;;;;;;5019587;28;20346;-76
2022/07/21 06:31:46;;;;;;;11.65;7.80;;;;;;;;;;5029858;28;20044;-76
2022/07/21 06:34:32;;;;;;;11.73;9.25;;;;;;;;;;5013609;28;20025;-76
2022/07/21 06:37:18;;;;;;;10.30;6.97;;;;;;;;;;5019913;28;20460;-75
2022/07/21 06:40:04;;;;;;;10.23;6.97;;;;;;;;;;5030032;28;20069;-77
2022/07/21 06:42:49;;;;;;;9.20;6.45;;;;;;;;;;5034936;28;20040;-76
2022/07/21 06:45:35;;;;;;;10.18;6.47;;;;;;;;;;5039557;28;20041;-77
2022/07/21 06:48:21;;;;;;;8.77;6.28;;;;;;;;;;5028564;28;20045;-76
2022/07/21 06:51:07;;;;;;;11.32;7.38;;;;;;;;;;5010834;28;20025;-76
2022/07/21 06:53:53;;;;;;;9.73;7.65;;;;;;;;;;5019626;28;20033;-74
2022/07/21 06:56:39;;;;;;;10.20;6.78;;;;;;;;;;5006102;28;20044;-71
2022/07/21 06:59:24;;;;;;;10.90;6.57;;;;;;;;;;5025898;28;20468;-69
2022/07/21 07:02:10;;;;;;;13.10;6.95;;;;;;;;;;5025893;28;20495;-71
2022/07/21 07:04:56;;;;;;;8.60;5.97;;;;;;;;;;5037330;28;20052;-71
2022/07/21 07:07:43;;;;;;;9.98;6.22;;;;;;;;;;5019330;28;20519;-69
2022/07/21 07:10:29;;;;;;;11.57;6.55;;;;;;;;;;5018152;28;20074;-70
2022/07/21 07:13:15;;;;;;;8.52;6.32;;;;;;;;;;5002006;28;20037;-72
2022/07/21 07:16:00;;;;;;;9.90;6.50;;;;;;;;;;5025869;28;20154;-68
2022/07/21 07:18:46;;;;;;;8.07;5.78;;;;;;;;;;5022372;28;20025;-68
2022/07/21 07:21:31;;;;;;;11.15;6.47;;;;;;;;;;5033210;28;20067;-68
2022/07/21 07:24:17;;;;;;;11.38;6.80;;;;;;;;;;5035149;28;20100;-70
2022/07/21 07:27:03;;;;;;;9.50;6.25;;;;;;;;;;5023501;28;20034;-68
2022/07/21 07:29:48;;;;;;;21.10;6.85;;;;;;;;;;5013112;28;20033;-67
2022/07/21 07:32:34;;;;;;;8.45;6.43;;;;;;;;;;5021902;28;20060;-73
2022/07/21 07:35:20;;;;;;;8.55;5.25;;;;;;;;;;5025474;28;20040;-72
2022/07/21 07:38:06;;;;;;;10.05;5.68;;;;;;;;;;5012277;28;20037;-73
2022/07/21 07:40:51;;;;;;;8.90;5.75;;;;;;;;;;4995909;28;20112;-73
2022/07/21 07:43:37;;;;;;;9.30;5.93;;;;;;;;;;4986030;28;20489;-72
2022/07/21 07:46:22;;;;;;;9.10;5.40;;;;;;;;;;5012268;28;20041;-74
2022/07/21 07:49:08;;;;;;;8.30;6.28;;;;;;;;;;5017399;28;20045;-70
2022/07/21 07:51:54;;;;;;;7.93;5.45;;;;;;;;;;5007288;28;20107;-70
2022/07/21 07:54:39;;;;;;;7.45;6.05;;;;;;;;;;4974124;28;20065;-74
2022/07/21 07:57:25;;;;;;;9.15;6.95;;;;;;;;;;5005654;28;20096;-77
2022/07/21 08:00:12;;;;;;;9.43;6.30;;;;;;;;;;4998011;28;20489;-76
2022/07/21 08:02:58;;;;;;;9.02;6.07;;;;;;;;;;5000354;28;20093;-76
2022/07/21 08:05:44;;;;;;;8.25;5.80;;;;;;;;;;5012110;28;20032;-77
2022/07/21 08:08:30;;;;;;;8.95;5.90;;;;;;;;;;4995823;28;31220;-76
2022/07/21 08:11:16;;;;;;;8.02;5.55;;;;;;;;;;4999816;28;20468;-72
2022/07/21 08:14:02;;;;;;;10.73;6.53;;;;;;;;;;5003917;28;20029;-73
2022/07/21 08:16:47;;;;;;;9.07;6.32;;;;;;;;;;5004620;28;20038;-71
2022/07/21 08:19:33;;;;;;;10.40;5.95;;;;;;;;;;4973764;28;20038;-72
2022/07/21 08:22:19;;;;;;;7.95;5.68;;;;;;;;;;5004255;28;20065;-73
2022/07/21 08:25:04;;;;;;;7.90;5.90;;;;;;;;;;4999141;28;20463;-72
2022/07/21 08:27:50;;;;;;;7.50;5.28;;;;;;;;;;4966150;28;20026;-76
2022/07/21 08:30:36;;;;;;;8.18;5.50;;;;;;;;;;4957125;28;20306;-70
2022/07/21 08:33:22;;;;;;;12.40;5.75;;;;;;;;;;4959605;28;20035;-68
2022/07/21 08:36:07;;;;;;;10.63;6.82;;;;;;;;;;4975222;28;20030;-72
2022/07/21 08:38:53;;;;;;;8.20;5.55;;;;;;;;;;5003816;28;20022;-70
2022/07/21 08:41:40;;;;;;;8.23;6.05;;;;;;;;;;4975608;28;20093;-70
2022/07/21 08:44:25;;;;;;;9.10;6.07;;;;;;;;;;4957899;28;20372;-71
2022/07/21 08:47:11;;;;;;;8.48;5.95;;;;;;;;;;4957315;28;20075;-69
2022/07/21 08:49:57;;;;;;;9.20;5.85;;;;;;;;;;4923285;28;20022;-74
2022/07/21 08:52:43;;;;;;;7.00;5.43;;;;;;;;;;4964599;28;20034;-73
2022/07/21 08:55:30;;;;;;;10.95;5.72;;;;;;;;;;4965951;28;20428;-72
2022/07/21 08:58:16;;;;;;;7.80;5.80;;;;;;;;;;4974305;28;20129;-73
2022/07/21 09:01:01;;;;;;;10.95;5.97;;;;;;;;;;4995983;28;20117;-73
2022/07/21 09:03:47;;;;;;;9.13;5.40;;;;;;;;;;4990695;28;20065;-79
2022/07/21 09:06:48;;;;;;;6.43;5.00;;;;;;;;;;4991910;28;20081;-73
2022/07/21 09:09:34;;;;;;;8.95;6.47;;;;;;;;;;5001108;28;20029;-71
2022/07/21 09:12:20;;;;;;;6.85;5.43;;;;;;;;;;4993722;28;20469;-71
2022/07/21 09:15:12;;;;;;;8.60;5.20;;;;;;;;;;4993789;28;20038;-71
2022/07/21 09:18:15;;;;;;;9.73;5.85;;;;;;;;;;5010082;28;20029;-69
2022/07/21 09:21:01;;;;;;;7.53;4.95;;;;;;;;;;4977488;28;20049;-72
2022/07/21 09:23:47;;;;;;;5.47;4.45;;;;;;;;;;4948273;28;20048;-72
2022/07/21 09:26:33;;;;;;;7.22;5.13;;;;;;;;;;4988539;28;20121;-73
2022/07/21 09:29:18;;;;;;;8.70;4.65;;;;;;;;;;4963464;28;20045;-73
2022/07/21 09:32:13;;;;;;;6.63;4.68;;;;;;;;;;4979462;28;20493;-72
2022/07/21 09:35:00;;;;;;;7.38;5.15;;;;;;;;;;5003436;28;20034;-73
2022/07/21 09:37:45;;;;;;;11.05;5.10;;;;;;;;;;4980803;28;20125;-73
2022/07/21 09:40:31;;;;;;;9.10;5.03;;;;;;;;;;4997536;28;20573;-75
2022/07/21 09:43:30;;;;;;;6.95;4.97;;;;;;;;;;4988952;28;20034;-76
2022/07/21 09:46:18;;;;;;;7.07;4.80;;;;;;;;;;4986317;28;20390;-77
2022/07/21 09:49:05;;;;;;;7.50;4.85;;;;;;;;;;5025936;28;20475;-77
2022/07/21 09:51:50;;;;;;;7.57;4.65;;;;;;;;;;4982310;28;20023;-76
2022/07/21 09:54:36;;;;;;;5.68;4.18;;;;;;;;;;5020056;28;20536;-75
2022/07/21 09:57:21;;;;;;;6.50;5.13;;;;;;;;;;5021848;28;20026;-77
2022/07/21 10:00:08;;;;;;;5.80;4.18;;;;;;;;;;4979250;28;20038;-75
2022/07/21 10:02:55;;;;;;;9.55;4.85;;;;;;;;;;5005248;28;20427;-71
2022/07/21 10:05:40;;;;;;;5.90;4.15;;;;;;;;;;5013067;28;20441;-71
2022/07/21 10:08:26;;;;;;;7.63;4.80;;;;;;;;;;4980768;28;20452;-72
2022/07/21 10:11:12;;;;;;;4.72;3.88;;;;;;;;;;4915924;28;20126;-72
2022/07/21 10:13:58;;;;;;;5.43;3.83;;;;;;;;;;4956675;28;20426;-74
2022/07/21 10:16:44;;;;;;;4.90;3.63;;;;;;;;;;4962126;28;20038;-77
2022/07/21 10:19:32;;;;;;;6.05;3.33;;;;;;;;;;5006874;28;20168;-73
2022/07/21 10:22:17;;;;;;;4.87;3.23;;;;;;;;;;4980494;28;20039;-68
2022/07/21 10:25:04;;;;;;;6.40;3.20;;;;;;;;;;5010371;28;20264;-69
2022/07/21 10:28:08;;;;;;;6.43;3.92;;;;;;;;;;5007116;28;20104;-70
2022/07/21 10:30:55;;;;;;;7.43;3.58;;;;;;;;;;4995244;28;20030;-69
2022/07/21 10:33:44;;;;;;;6.68;3.60;;;;;;;;;;5001708;28;20034;-70
2022/07/21 10:36:33;;;;;;;5.43;3.42;;;;;;;;;;4990738;28;20435;-76
2022/07/21 10:39:20;;;;;;;3.97;3.15;;;;;;;;;;4996779;28;20041;-74
2022/07/21 10:42:15;;;;;;;5.50;2.90;;;;;;;;;;5010914;28;20037;-74
2022/07/21 10:45:01;;;;;;;5.93;3.30;;;;;;;;;;5021420;28;20093;-74
2022/07/21 10:47:47;;;;;;;4.70;3.33;;;;;;;;;;5016060;28;20109;-74
2022/07/21 10:50:37;;;;;;;5.93;3.60;;;;;;;;;;5012760;28;20044;-73
2022/07/21 10:53:22;;;;;;;5.03;2.97;;;;;;;;;;5018803;28;20048;-79
2022/07/21 10:56:24;;;;;;;5.32;3.28;;;;;;;;;;4984765;28;20034;-72
2022/07/21 10:59:10;;;;;;;3.83;2.72;;;;;;;;;;4996297;28;20042;-77
2022/07/21 11:02:15;;;;;;;5.80;3.40;;;;;;;;;;5006304;28;20032;-77
2022/07/21 11:05:05;;;;;;;6.00;3.65;;;;;;;;;;5013343;28;20365;-76
2022/07/21 11:08:10;;;;;;;4.90;2.95;;;;;;;;;;5016720;28;20033;-79
2022/07/21 11:11:06;;;;;;;7.95;3.13;;;;;;;;;;4996109;28;20472;-77
2022/07/21 11:13:57;;;;;;;5.78;3.08;;;;;;;;;;4989792;28;20052;-73
2022/07/21 11:16:43;;;;;;;4.05;3.25;;;;;;;;;;5001709;28;20088;-73
2022/07/21 11:19:30;;;;;;;5.55;2.88;;;;;;;;;;4989035;28;20493;-72
2022/07/21 11:22:20;;;;;;;4.45;2.85;;;;;;;;;;4989291;28;20033;-72
2022/07/21 11:25:06;;;;;;;7.43;3.53;;;;;;;;;;5014797;28;20044;-72
2022/07/21 11:27:54;;;;;;;5.85;3.35;;;;;;;;;;4988532;28;20050;-72
2022/07/21 11:30:39;;;;;;;5.53;2.83;;;;;;;;;;5023792;28;20057;-71
2022/07/21 11:33:25;;;;;;;4.47;3.35;;;;;;;;;;5006237;28;20468;-74
2022/07/21 11:36:22;;;;;;;5.03;3.20;;;;;;;;;;5012509;28;20042;-72
2022/07/21 11:39:10;;;;;;;4.30;2.78;;;;;;;;;;4995998;28;20076;-72
2022/07/21 11:42:01;;;;;;;5.22;3.28;;;;;;;;;;4996603;28;20045;-73
2022/07/21 11:44:47;;;;;;;4.28;2.80;;;;;;;;;;4995991;28;20041;-72
2022/07/21 11:47:32;;;;;;;4.57;3.15;;;;;;;;;;4992118;28;20117;-74
2022/07/21 11:50:18;;;;;;;4.30;3.28;;;;;;;;;;5016185;28;20035;-68
2022/07/21 11:53:04;;;;;;;3.70;3.30;;;;;;;;;;5001865;28;20071;-69
2022/07/21 11:55:50;;;;;;;4.82;3.13;;;;;;;;;;5008184;28;20472;-69
2022/07/21 11:58:36;;;;;;;5.72;3.05;;;;;;;;;;5021046;28;20464;-68
2022/07/21 12:01:21;;;;;;;6.57;3.40;;;;;;;;;;5023631;28;20033;-69
2022/07/21 12:04:07;;;;;;;6.00;3.90;;;;;;;;;;5030754;28;20092;-69
2022/07/21 12:06:53;;;;;;;5.18;3.50;;;;;;;;;;5008390;28;20398;-69
2022/07/21 12:09:39;;;;;;;4.43;3.50;;;;;;;;;;5012307;28;20043;-69
2022/07/21 12:12:28;;;;;;;5.13;3.33;;;;;;;;;;4995803;28;20049;-78
2022/07/21 12:15:18;;;;;;;5.95;3.67;;;;;;;;;;4999996;28;20411;-76
2022/07/21 12:18:05;;;;;;;4.80;3.40;;;;;;;;;;5040965;28;20041;-76
2022/07/21 12:21:00;;;;;;;7.03;3.45;;;;;;;;;;4986522;28;20544;-79
2022/07/21 12:23:46;;;;;;;5.45;3.72;;;;;;;;;;4988182;28;20061;-78
2022/07/21 12:26:31;;;;;;;6.35;3.60;;;;;;;;;;4970671;28;20335;-73
2022/07/21 12:29:27;;;;;;;5.18;3.33;;;;;;;;;;4977193;28;20042;-69
2022/07/21 12:32:13;;;;;;;4.88;3.70;;;;;;;;;;5006276;28;20453;-69
2022/07/21 12:34:58;;;;;;;6.22;4.03;;;;;;;;;;4990974;28;20066;-70
2022/07/21 12:37:57;;;;;;;7.55;3.90;;;;;;;;;;4967013;28;20030;-72
2022/07/21 12:40:43;;;;;;;;;;;;;;;;;;4977363;28;20424;-69
2022/07/21 12:43:29;;;;;;;5.80;4.05;;;;;;;;;;4988005;28;19996;-71
2022/07/21 12:46:17;;;;;;;8.52;3.90;;;;;;;;;;4989394;28;20432;-74
2022/07/21 12:49:04;;;;;;;6.40;3.97;;;;;;;;;;5009883;28;20474;-79
2022/07/21 12:51:56;;;;;;;5.80;3.50;;;;;;;;;;5011561;28;20828;-77
2022/07/21 12:54:42;;;;;;;5.43;4.18;;;;;;;;;;5036689;28;20040;-76
2022/07/21 12:57:28;;;;;;;7.43;4.25;;;;;;;;;;5029379;28;20085;-78
2022/07/21 13:00:14;;;;;;;6.45;4.70;;;;;;;;;;5017417;28;20502;-76
2022/07/21 13:03:00;;;;;;;5.78;4.25;;;;;;;;;;5005955;28;20369;-71
2022/07/21 13:05:46;;;;;;;7.88;4.53;;;;;;;;;;5008274;28;20087;-75
2022/07/21 13:08:32;;;;;;;8.02;4.70;;;;;;;;;;5005357;28;20065;-75
2022/07/21 13:11:19;;;;;;;7.47;3.70;;;;;;;;;;5031933;28;20037;-75
2022/07/21 13:14:04;;;;;;;5.88;4.45;;;;;;;;;;5023124;28;20120;-75
2022/07/21 13:16:52;;;;;;;7.05;4.82;;;;;;;;;;5024458;28;20041;-74
2022/07/21 13:19:38;;;;;;;6.00;4.60;;;;;;;;;;5011618;28;20068;-75
2022/07/21 13:22:23;;;;;;;6.43;4.60;;;;;;;;;;5029677;28;20100;-69
2022/07/21 13:25:09;;;;;;;8.13;4.60;;;;;;;;;;5015398;28;20045;-72
2022/07/21 13:27:55;;;;;;;8.60;4.85;;;;;;;;;;4996087;28;20040;-72
2022/07/21 13:30:41;;;;;;;6.18;4.60;;;;;;;;;;4996145;28;20053;-73
2022/07/21 13:33:27;;;;;;;7.45;5.15;;;;;;;;;;5005272;28;20033;-72
2022/07/21 13:36:13;;;;;;;6.35;4.38;;;;;;;;;;5024693;28;20040;-72
2022/07/21 13:38:58;;;;;;;8.30;5.03;;;;;;;;;;5009930;28;20052;-73
2022/07/21 13:41:44;;;;;;;7.40;4.68;;;;;;;;;;5017564;28;20184;-72
2022/07/21 13:44:30;;;;;;;6.65;4.63;;;;;;;;;;4997366;28;20027;-69
2022/07/21 13:47:16;;;;;;;5.82;4.30;;;;;;;;;;4959122;28;20134;-70
2022/07/21 13:50:02;;;;;;;8.52;4.43;;;;;;;;;;4987229;28;20041;-70
2022/07/21 13:52:47;;;;;;;7.65;4.65;;;;;;;;;;5003377;28;20113;-68
2022/07/21 13:55:33;;;;;;;7.18;4.38;;;;;;;;;;5001178;28;20092;-69
2022/07/21 13:58:19;;;;;;;8.25;4.53;;;;;;;;;;4990991;28;20449;-70
2022/07/21 14:01:05;;;;;;;6.88;3.83;;;;;;;;;;4992660;28;20042;-72
2022/07/21 14:03:52;;;;;;;7.72;4.22;;;;;;;;;;5007465;28;20039;-71
2022/07/21 14:06:39;;;;;;;8.35;4.25;;;;;;;;;;5006472;28;20033;-71
2022/07/21 14:09:25;;;;;;;7.93;4.10;;;;;;;;;;4997755;28;20491;-71
2022/07/21 14:12:11;;;;;;;8.35;4.45;;;;;;;;;;4987448;28;20037;-70
2022/07/21 14:14:56;;;;;;;5.47;3.65;;;;;;;;;;5001009;28;20033;-70
2022/07/21 14:17:42;;;;;;;6.50;4.05;;;;;;;;;;4992838;28;20282;-75
2022/07/21 14:20:27;;;;;;;5.07;4.13;;;;;;;;;;4993907;28;20459;-76
2022/07/21 14:23:13;;;;;;;6.20;4.10;;;;;;;;;;4994021;28;20490;-76
2022/07/21 14:25:59;;;;;;;5.82;3.88;;;;;;;;;;4984303;28;20459;-76
2022/07/21 14:28:45;;;;;;;6.93;4.57;;;;;;;;;;5030525;28;20360;-76
2022/07/21 14:31:30;;;;;;;5.85;3.95;;;;;;;;;;5031802;28;20463;-75
2022/07/21 14:34:16;;;;;;;4.85;3.67;;;;;;;;;;5020919;28;20029;-68
2022/07/21 14:37:01;;;;;;;5.82;4.13;;;;;;;;;;5000619;28;20030;-71
2022/07/21 14:39:48;;;;;;;6.03;3.60;;;;;;;;;;4997243;28;20048;-70
2022/07/21 14:42:34;;;;;;;5.82;3.70;;;;;;;;;;5002091;28;20531;-69
2022/07/21 14:45:21;;;;;;;6.30;3.97;;;;;;;;;;5020456;28;20467;-68
2022/07/21 14:48:07;;;;;;;5.22;3.63;;;;;;;;;;5019278;28;20190;-69
2022/07/21 14:50:53;;;;;;;6.93;4.22;;;;;;;;;;5027860;28;20064;-69
2022/07/21 14:53:38;;;;;;;7.32;4.10;;;;;;;;;;5017713;28;20033;-75
2022/07/21 14:56:24;;;;;;;7.47;4.85;;;;;;;;;;5016159;28;20381;-72
2022/07/21 14:59:10;;;;;;;5.63;4.43;;;;;;;;;;5028883;28;20033;-71
2022/07/21 15:01:55;;;;;;;5.78;3.70;;;;;;;;;;5027640;28;20025;-70
2022/07/21 15:04:41;;;;;;;6.70;4.20;;;;;;;;;;5029602;28;20029;-72
2022/07/21 15:07:26;;;;;;;7.13;4.18;;;;;;;;;;5008687;28;20041;-70
2022/07/21 15:10:12;;;;;;;6.90;4.30;;;;;;;;;;5014815;28;20116;-72
2022/07/21 15:12:57;;;;;;;7.90;4.28;;;;;;;;;;5028796;28;20392;-69
2022/07/21 15:15:43;;;;;;;4.50;3.83;;;;;;;;;;4990612;28;20485;-72
2022/07/21 15:18:29;;;;;;;5.95;4.20;;;;;;;;;;5014816;28;20038;-72
2022/07/21 15:21:15;;;;;;;6.57;4.00;;;;;;;;;;5009548;28;20041;-72
2022/07/21 15:24:01;;;;;;;6.22;4.00;;;;;;;;;;4988456;28;20029;-73
2022/07/21 15:26:47;;;;;;;5.07;3.65;;;;;;;;;;5007988;28;20040;-73
2022/07/21 15:29:32;;;;;;;6.85;3.92;;;;;;;;;;4982436;28;20046;-75
2022/07/21 15:32:18;;;;;;;6.95;4.63;;;;;;;;;;5009969;28;20094;-73
2022/07/21 15:35:04;;;;;;;6.47;3.88;;;;;;;;;;4986826;28;20385;-72
2022/07/21 15:37:50;;;;;;;6.68;3.75;;;;;;;;;;4991506;28;20464;-72
2022/07/21 15:40:35;;;;;;;6.00;3.80;;;;;;;;;;4999560;28;20057;-71
2022/07/21 15:43:21;;;;;;;7.90;4.03;;;;;;;;;;5012946;28;20477;-71
2022/07/21 15:46:06;;;;;;;8.70;4.25;;;;;;;;;;5023389;28;20424;-71
2022/07/21 15:48:52;;;;;;;6.78;4.00;;;;;;;;;;5039423;28;20029;-74
2022/07/21 15:51:38;;;;;;;5.00;3.45;;;;;;;;;;5027704;28;20636;-73
2022/07/21 15:54:23;;;;;;;5.47;3.97;;;;;;;;;;5024551;28;20397;-72
2022/07/21 15:57:09;;;;;;;4.95;3.75;;;;;;;;;;5017025;28;20042;-74
2022/07/21 15:59:55;;;;;;;3.97;3.53;;;;;;;;;;5028660;28;20037;-76
2022/07/21 16:02:40;;;;;;;5.25;3.60;;;;;;;;;;5011697;28;20056;-73
2022/07/21 16:05:26;;;;;;;6.55;3.50;;;;;;;;;;5022095;28;20048;-73
2022/07/21 16:08:12;;;;;;;5.38;3.65;;;;;;;;;;5027086;28;20034;-68
2022/07/21 16:10:58;;;;;;;5.35;3.70;;;;;;;;;;5022238;28;20112;-70
2022/07/21 16:13:43;;;;;;;7.75;3.75;;;;;;;;;;5018416;28;20395;-69
2022/07/21 16:16:29;;;;;;;5.35;3.63;;;;;;;;;;5028164;28;20472;-70
2022/07/21 16:19:15;;;;;;;6.53;3.50;;;;;;;;;;5013023;28;20049;-72
2022/07/21 16:22:01;;;;;;;7.88;4.05;;;;;;;;;;5034485;28;20379;-70
2022/07/21 16:24:47;;;;;;;4.28;3.47;;;;;;;;;;5024327;28;20502;-79
2022/07/21 16:27:32;;;;;;;6.65;4.05;;;;;;;;;;5021136;28;20086;-74
2022/07/21 16:30:18;;;;;;;5.78;3.95;;;;;;;;;;5021102;28;20037;-70
2022/07/21 16:33:04;;;;;;;6.45;3.38;;;;;;;;;;5019398;28;20080;-70